Lyndonville, VT

3:56 AM EST on December 19, 2014 (GMT -0500)
MesoWest LSC Main Station VT US LSCNET | Change Station
CLOSE
Current Station
Personal Weather Station
Location: Lyndonville, VT
Elevation: 1039 ft
Nearby Weather Stations

Elev 1039 ft 44.54 °N, 72.03 °W | Updated 21 minutes ago

Overcast
Overcast
25 °F
Feels Like 25 °F
N
0
Wind Variable Wind from North
Gusts 0.0 mph

Today
High -- | Low -- °F
--% Chance of Precip.
Yesterday
High -- | Low -- °F
Precip. -- in
7:20 AM 4:10 PM
Waning Crescent, 9% visible
Pressure 29.87 in
Visibility 10.0 miles
Clouds Mostly Cloudy 1700 ft
Overcast 2300 ft
Windchill 25 °F
Dew Point 23 °F
Humidity 91%
Rainfall -999.00 in
Snow Depth Not available.
UV 0 out of 12
Pollen .10 out of 12
Air Quality Not available.
Flu Activity Not available.
METAR KCDA 190835Z AUTO 27005KT 10SM BKN017 OVC023 M03/M06 A2987 RMK AO2 T10351060

More Conditions Fewer Conditions

Pressure 29.87 in
Visibility 10.0 miles
Clouds Mostly Cloudy 1700 ft
Overcast 2300 ft
Windchill 25 °F
Dew Point 23 °F
Humidity 91%
Rainfall -999.00 in
Snow Depth Not available.
UV 0 out of 12
Pollen .10 out of 12
Air Quality Not available.
Flu Activity Not available.
METAR KCDA 190835Z AUTO 27005KT 10SM BKN017 OVC023 M03/M06 A2987 RMK AO2 T10351060

More Conditions Fewer Conditions

10-Day Weather Forecast

Almanac

Astronomy

Dec. 19, 2014 Rise Set
Actual Time
Civil Twilight
Nautical Twilight
Astronomical Twilight
Moon
Length of Visible Light
Length of Day
Tomorrow will be .
, % of the Moon is Illuminated

Today's Extremes

State Highs State Lows

Community

WunderPhotos

Upload Photos

1,778,953 photos uploaded!

WunderBlogs® & News

Nearby

Air Quality

  Air Quality AQ Index Pollutant
Not available.

Snow Depth

Station Depth Elevation

Earthquake Activity

City Distance Mag. Time & Date
Minimum magnitude displayed is 2.5.

Coastal Water Temperatures

Place Temperature

Nearby Weather Stations